sensor_id;sensor_type;location;lat;lon;timestamp;pressure;altitude;pressure_sealevel;temperature;humidity
22181;BME280;11256;50.830;12.834;2023-12-28T00:00:32;97425.00;;;6.15;73.34
22181;BME280;11256;50.830;12.834;2023-12-28T00:05:33;97421.56;;;6.19;72.80
22181;BME280;11256;50.830;12.834;2023-12-28T00:10:33;97430.97;;;6.22;72.53
22181;BME280;11256;50.830;12.834;2023-12-28T00:15:33;97422.34;;;6.20;72.57
22181;BME280;11256;50.830;12.834;2023-12-28T00:20:34;97418.59;;;6.21;72.07
22181;BME280;11256;50.830;12.834;2023-12-28T00:25:34;97412.13;;;6.17;72.18
22181;BME280;11256;50.830;12.834;2023-12-28T00:30:35;97406.19;;;6.20;72.30
22181;BME280;11256;50.830;12.834;2023-12-28T00:35:35;97395.72;;;6.18;71.64
22181;BME280;11256;50.830;12.834;2023-12-28T00:40:35;97397.94;;;6.31;70.91
22181;BME280;11256;50.830;12.834;2023-12-28T00:45:36;97389.03;;;6.26;71.42
22181;BME280;11256;50.830;12.834;2023-12-28T00:50:36;97380.16;;;6.25;71.44
22181;BME280;11256;50.830;12.834;2023-12-28T00:55:36;97368.63;;;6.35;70.82
22181;BME280;11256;50.830;12.834;2023-12-28T01:00:36;97386.97;;;6.38;70.82
22181;BME280;11256;50.830;12.834;2023-12-28T01:05:37;97382.66;;;6.42;69.70
22181;BME280;11256;50.830;12.834;2023-12-28T01:10:38;97388.03;;;6.42;69.36
22181;BME280;11256;50.830;12.834;2023-12-28T01:15:38;97391.28;;;6.44;69.58
22181;BME280;11256;50.830;12.834;2023-12-28T01:20:38;97405.28;;;6.46;69.83
22181;BME280;11256;50.830;12.834;2023-12-28T01:25:39;97396.69;;;6.44;69.64
22181;BME280;11256;50.830;12.834;2023-12-28T01:30:39;97377.84;;;6.44;69.73
22181;BME280;11256;50.830;12.834;2023-12-28T01:35:41;97375.72;;;6.51;69.40
22181;BME280;11256;50.830;12.834;2023-12-28T01:40:45;97371.41;;;6.50;69.90
22181;BME280;11256;50.830;12.834;2023-12-28T01:45:46;97367.91;;;6.49;69.49
22181;BME280;11256;50.830;12.834;2023-12-28T01:50:46;97383.25;;;6.49;69.89
22181;BME280;11256;50.830;12.834;2023-12-28T01:55:46;97361.16;;;6.47;69.65
22181;BME280;11256;50.830;12.834;2023-12-28T02:00:47;97367.09;;;6.49;69.83
22181;BME280;11256;50.830;12.834;2023-12-28T02:05:47;97362.75;;;6.48;69.09
22181;BME280;11256;50.830;12.834;2023-12-28T02:10:48;97367.09;;;6.49;69.68
22181;BME280;11256;50.830;12.834;2023-12-28T02:15:53;97366.00;;;6.45;69.58
22181;BME280;11256;50.830;12.834;2023-12-28T02:20:54;97374.59;;;6.47;69.57
22181;BME280;11256;50.830;12.834;2023-12-28T02:25:56;97369.50;;;6.40;69.59
22181;BME280;11256;50.830;12.834;2023-12-28T02:30:59;97367.09;;;6.49;69.48
22181;BME280;11256;50.830;12.834;2023-12-28T02:36:05;97366.56;;;6.52;68.89
22181;BME280;11256;50.830;12.834;2023-12-28T02:41:08;97358.47;;;6.47;68.12
22181;BME280;11256;50.830;12.834;2023-12-28T02:46:08;97360.06;;;6.48;67.91
22181;BME280;11256;50.830;12.834;2023-12-28T02:51:09;97360.38;;;6.51;68.16
22181;BME280;11256;50.830;12.834;2023-12-28T02:56:09;97352.03;;;6.53;68.24
22181;BME280;11256;50.830;12.834;2023-12-28T03:01:09;97360.66;;;6.55;68.55
22181;BME280;11256;50.830;12.834;2023-12-28T03:06:10;97379.53;;;6.60;68.49
22181;BME280;11256;50.830;12.834;2023-12-28T03:11:10;97392.97;;;6.55;68.50
22181;BME280;11256;50.830;12.834;2023-12-28T03:16:10;97416.13;;;6.56;68.61
22181;BME280;11256;50.830;12.834;2023-12-28T03:21:11;97431.72;;;6.59;68.14
22181;BME280;11256;50.830;12.834;2023-12-28T03:26:11;97427.69;;;6.56;68.29
22181;BME280;11256;50.830;12.834;2023-12-28T03:31:11;97416.13;;;6.61;68.22
22181;BME280;11256;50.830;12.834;2023-12-28T03:36:21;97410.19;;;6.59;68.29
22181;BME280;11256;50.830;12.834;2023-12-28T03:41:21;97402.97;;;6.64;67.54
22181;BME280;11256;50.830;12.834;2023-12-28T03:46:21;97387.06;;;6.63;67.29
22181;BME280;11256;50.830;12.834;2023-12-28T03:51:22;97387.06;;;6.63;65.26
22181;BME280;11256;50.830;12.834;2023-12-28T03:56:24;97376.59;;;6.71;65.19
22181;BME280;11256;50.830;12.834;2023-12-28T04:01:27;97375.81;;;6.71;64.61
22181;BME280;11256;50.830;12.834;2023-12-28T04:06:27;97395.25;;;6.83;64.40
22181;BME280;11256;50.830;12.834;2023-12-28T04:11:28;97383.16;;;6.90;64.43
22181;BME280;11256;50.830;12.834;2023-12-28T04:16:28;97375.34;;;6.94;64.35
22181;BME280;11256;50.830;12.834;2023-12-28T04:21:28;97367.28;;;7.04;64.53
22181;BME280;11256;50.830;12.834;2023-12-28T04:26:29;97363.53;;;7.10;63.74
22181;BME280;11256;50.830;12.834;2023-12-28T04:31:30;97350.34;;;7.18;63.42
22181;BME280;11256;50.830;12.834;2023-12-28T04:36:31;97333.13;;;7.24;63.38
22181;BME280;11256;50.830;12.834;2023-12-28T04:41:31;97316.13;;;7.34;63.73
22181;BME280;11256;50.830;12.834;2023-12-28T04:46:31;97329.63;;;7.39;63.41
22181;BME280;11256;50.830;12.834;2023-12-28T04:51:32;97321.53;;;7.39;63.71
22181;BME280;11256;50.830;12.834;2023-12-28T04:56:32;97331.25;;;7.50;64.23
22181;BME280;11256;50.830;12.834;2023-12-28T05:01:32;97336.09;;;7.53;63.63
22181;BME280;11256;50.830;12.834;2023-12-28T05:06:33;97333.13;;;7.64;64.26
22181;BME280;11256;50.830;12.834;2023-12-28T05:11:33;97337.16;;;7.67;64.78
22181;BME280;11256;50.830;12.834;2023-12-28T05:16:33;97379.22;;;7.78;64.91
22181;BME280;11256;50.830;12.834;2023-12-28T05:21:33;97391.63;;;7.84;64.91
22181;BME280;11256;50.830;12.834;2023-12-28T05:26:34;97412.69;;;7.87;65.42
22181;BME280;11256;50.830;12.834;2023-12-28T05:31:34;97416.47;;;7.96;65.96
22181;BME280;11256;50.830;12.834;2023-12-28T05:36:35;97403.78;;;7.96;65.41
22181;BME280;11256;50.830;12.834;2023-12-28T05:41:35;97409.44;;;8.05;65.54
22181;BME280;11256;50.830;12.834;2023-12-28T05:46:35;97416.44;;;8.06;66.18
22181;BME280;11256;50.830;12.834;2023-12-28T05:51:39;97421.31;;;8.19;66.40
22181;BME280;11256;50.830;12.834;2023-12-28T05:56:40;97422.41;;;8.23;66.41
22181;BME280;11256;50.830;12.834;2023-12-28T06:01:43;97427.53;;;8.29;66.04
22181;BME280;11256;50.830;12.834;2023-12-28T06:06:44;97424.28;;;8.27;65.98
22181;BME280;11256;50.830;12.834;2023-12-28T06:11:44;97414.81;;;8.15;65.20
22181;BME280;11256;50.830;12.834;2023-12-28T06:16:44;97445.63;;;8.34;65.87
22181;BME280;11256;50.830;12.834;2023-12-28T06:21:45;97440.75;;;8.36;65.52
22181;BME280;11256;50.830;12.834;2023-12-28T06:26:45;97453.16;;;8.42;66.01
22181;BME280;11256;50.830;12.834;2023-12-28T06:31:45;97459.91;;;8.44;66.34
22181;BME280;11256;50.830;12.834;2023-12-28T06:36:46;97448.56;;;8.42;66.17
22181;BME280;11256;50.830;12.834;2023-12-28T06:41:47;97449.63;;;8.46;66.06
22181;BME280;11256;50.830;12.834;2023-12-28T06:46:48;97446.91;;;8.51;66.15
22181;BME280;11256;50.830;12.834;2023-12-28T06:51:48;97471.53;;;8.50;66.10
22181;BME280;11256;50.830;12.834;2023-12-28T06:56:49;97506.06;;;8.53;66.30
22181;BME280;11256;50.830;12.834;2023-12-28T07:01:49;97499.31;;;8.50;66.41
22181;BME280;11256;50.830;12.834;2023-12-28T07:06:49;97515.78;;;8.54;66.96
22181;BME280;11256;50.830;12.834;2023-12-28T07:11:50;97513.63;;;8.56;66.76
22181;BME280;11256;50.830;12.834;2023-12-28T07:16:50;97507.16;;;8.52;66.93
22181;BME280;11256;50.830;12.834;2023-12-28T07:21:50;97512.00;;;8.55;66.89
22181;BME280;11256;50.830;12.834;2023-12-28T07:26:51;97521.19;;;8.54;67.11
22181;BME280;11256;50.830;12.834;2023-12-28T07:31:51;97523.88;;;8.59;67.41
22181;BME280;11256;50.830;12.834;2023-12-28T07:36:51;97508.25;;;8.56;67.49
22181;BME280;11256;50.830;12.834;2023-12-28T07:41:52;97512.28;;;8.58;67.32
22181;BME280;11256;50.830;12.834;2023-12-28T07:46:52;97517.94;;;8.62;67.51
22181;BME280;11256;50.830;12.834;2023-12-28T07:51:53;97522.25;;;8.53;67.28
22181;BME280;11256;50.830;12.834;2023-12-28T07:56:53;97538.47;;;8.58;68.04
22181;BME280;11256;50.830;12.834;2023-12-28T08:01:53;97527.13;;;8.61;67.78
22181;BME280;11256;50.830;12.834;2023-12-28T08:06:54;97536.84;;;8.57;67.90
22181;BME280;11256;50.830;12.834;2023-12-28T08:11:54;97503.38;;;8.48;67.77
22181;BME280;11256;50.830;12.834;2023-12-28T08:16:54;97508.75;;;8.43;68.12
22181;BME280;11256;50.830;12.834;2023-12-28T08:21:55;97523.88;;;8.59;68.30
22181;BME280;11256;50.830;12.834;2023-12-28T08:26:55;97535.25;;;8.61;68.61
22181;BME280;11256;50.830;12.834;2023-12-28T08:31:59;97554.94;;;8.61;68.88
22181;BME280;11256;50.830;12.834;2023-12-28T08:36:59;97554.94;;;8.66;69.39
22181;BME280;11256;50.830;12.834;2023-12-28T08:42:00;97546.56;;;8.63;69.31
22181;BME280;11256;50.830;12.834;2023-12-28T08:47:00;97530.88;;;8.65;69.56
22181;BME280;11256;50.830;12.834;2023-12-28T08:52:02;97553.84;;;8.82;69.50
22181;BME280;11256;50.830;12.834;2023-12-28T08:57:03;97559.78;;;8.84;69.87
22181;BME280;11256;50.830;12.834;2023-12-28T09:02:03;97562.22;;;8.86;69.29
22181;BME280;11256;50.830;12.834;2023-12-28T09:07:04;97574.88;;;9.00;69.62
22181;BME280;11256;50.830;12.834;2023-12-28T09:12:04;97593.00;;;8.95;69.56
22181;BME280;11256;50.830;12.834;2023-12-28T09:17:05;97580.53;;;9.04;69.48
22181;BME280;11256;50.830;12.834;2023-12-28T09:22:05;97586.50;;;9.11;69.58
22181;BME280;11256;50.830;12.834;2023-12-28T09:27:06;97572.97;;;9.16;69.31
22181;BME280;11256;50.830;12.834;2023-12-28T09:32:06;97570.28;;;9.11;69.44
22181;BME280;11256;50.830;12.834;2023-12-28T09:37:06;97567.84;;;9.09;69.63
22181;BME280;11256;50.830;12.834;2023-12-28T09:42:16;97564.88;;;9.11;69.74
22181;BME280;11256;50.830;12.834;2023-12-28T09:47:17;97565.41;;;9.03;70.00
22181;BME280;11256;50.830;12.834;2023-12-28T09:52:17;97561.09;;;9.02;69.83
22181;BME280;11256;50.830;12.834;2023-12-28T09:57:18;97538.97;;;9.00;69.62
22181;BME280;11256;50.830;12.834;2023-12-28T10:02:19;97558.91;;;9.04;69.94
22181;BME280;11256;50.830;12.834;2023-12-28T10:07:19;97552.72;;;9.03;69.99
22181;BME280;11256;50.830;12.834;2023-12-28T10:12:19;97553.25;;;8.95;70.26
22181;BME280;11256;50.830;12.834;2023-12-28T10:17:20;97542.47;;;8.95;70.48
22181;BME280;11256;50.830;12.834;2023-12-28T10:22:20;97555.69;;;8.97;70.37
22181;BME280;11256;50.830;12.834;2023-12-28T10:27:21;97553.56;;;8.94;70.47
22181;BME280;11256;50.830;12.834;2023-12-28T10:32:25;97551.13;;;9.02;70.53
22181;BME280;11256;50.830;12.834;2023-12-28T10:37:26;97549.19;;;9.13;70.48
22181;BME280;11256;50.830;12.834;2023-12-28T10:42:37;97530.28;;;9.08;70.29
22181;BME280;11256;50.830;12.834;2023-12-28T10:47:52;97550.28;;;9.02;70.61
22181;BME280;11256;50.830;12.834;2023-12-28T10:53:00;97540.56;;;9.06;70.35
22181;BME280;11256;50.830;12.834;2023-12-28T10:58:21;97559.72;;;9.19;70.41
22181;BME280;11256;50.830;12.834;2023-12-28T11:03:30;97536.19;;;9.15;70.55
22181;BME280;11256;50.830;12.834;2023-12-28T11:08:34;97536.19;;;9.20;70.66
22181;BME280;11256;50.830;12.834;2023-12-28T11:13:36;97531.34;;;9.17;70.95
22181;BME280;11256;50.830;12.834;2023-12-28T11:18:40;97536.72;;;9.27;71.11
22181;BME280;11256;50.830;12.834;2023-12-28T11:23:42;97542.66;;;9.29;71.41
22181;BME280;11256;50.830;12.834;2023-12-28T11:28:44;97537.50;;;9.32;71.61
22181;BME280;11256;50.830;12.834;2023-12-28T11:33:50;97542.63;;;9.34;71.53
22181;BME280;11256;50.830;12.834;2023-12-28T11:38:53;97538.28;;;9.48;71.56
22181;BME280;11256;50.830;12.834;2023-12-28T11:43:55;97541.50;;;9.50;71.70
22181;BME280;11256;50.830;12.834;2023-12-28T11:49:06;97538.78;;;9.55;71.56
22181;BME280;11256;50.830;12.834;2023-12-28T11:54:09;97518.19;;;9.59;71.98
22181;BME280;11256;50.830;12.834;2023-12-28T11:59:10;97512.22;;;9.62;71.93
22181;BME280;11256;50.830;12.834;2023-12-28T12:04:11;97521.91;;;9.68;72.80
22181;BME280;11256;50.830;12.834;2023-12-28T12:09:11;97514.06;;;9.71;72.70
22181;BME280;11256;50.830;12.834;2023-12-28T12:14:11;97515.97;;;9.71;73.06
22181;BME280;11256;50.830;12.834;2023-12-28T12:19:12;97522.94;;;9.82;73.27
22181;BME280;11256;50.830;12.834;2023-12-28T12:24:13;97535.63;;;9.86;72.90
22181;BME280;11256;50.830;12.834;2023-12-28T12:29:14;97535.31;;;9.93;73.58
22181;BME280;11256;50.830;12.834;2023-12-28T12:34:17;97527.69;;;10.05;74.13
22181;BME280;11256;50.830;12.834;2023-12-28T12:39:17;97538.22;;;10.11;73.99
22181;BME280;11256;50.830;12.834;2023-12-28T12:44:22;97533.28;;;10.18;74.55
22181;BME280;11256;50.830;12.834;2023-12-28T12:49:22;97528.13;;;10.22;74.81
22181;BME280;11256;50.830;12.834;2023-12-28T12:54:23;97519.47;;;10.20;74.40
22181;BME280;11256;50.830;12.834;2023-12-28T12:59:23;97544.28;;;10.32;75.84
22181;BME280;11256;50.830;12.834;2023-12-28T13:04:26;97537.00;;;10.61;76.13
22181;BME280;11256;50.830;12.834;2023-12-28T13:09:27;97532.19;;;10.58;74.87
22181;BME280;11256;50.830;12.834;2023-12-28T13:14:27;97539.56;;;10.81;76.08
22181;BME280;11256;50.830;12.834;2023-12-28T13:19:28;97526.81;;;11.05;76.10
22181;BME280;11256;50.830;12.834;2023-12-28T13:24:28;97529.53;;;11.05;75.87
22181;BME280;11256;50.830;12.834;2023-12-28T13:29:29;97522.56;;;11.22;76.26
22181;BME280;11256;50.830;12.834;2023-12-28T13:34:29;97539.91;;;11.50;76.26
22181;BME280;11256;50.830;12.834;2023-12-28T13:39:30;97532.94;;;11.86;75.28
22181;BME280;11256;50.830;12.834;2023-12-28T13:44:30;97518.25;;;11.87;74.81
22181;BME280;11256;50.830;12.834;2023-12-28T13:49:31;97505.88;;;11.99;72.80
22181;BME280;11256;50.830;12.834;2023-12-28T13:54:32;97516.94;;;12.40;71.83
22181;BME280;11256;50.830;12.834;2023-12-28T13:59:32;97519.38;;;12.23;71.75
22181;BME280;11256;50.830;12.834;2023-12-28T14:04:32;97509.25;;;12.10;72.32
22181;BME280;11256;50.830;12.834;2023-12-28T14:09:32;97518.88;;;12.02;71.89
22181;BME280;11256;50.830;12.834;2023-12-28T14:14:33;97529.66;;;11.89;71.97
22181;BME280;11256;50.830;12.834;2023-12-28T14:19:33;97507.50;;;11.82;71.72
22181;BME280;11256;50.830;12.834;2023-12-28T14:24:34;97507.09;;;11.70;72.35
22181;BME280;11256;50.830;12.834;2023-12-28T14:29:34;97501.22;;;11.63;72.35
22181;BME280;11256;50.830;12.834;2023-12-28T14:34:35;97498.78;;;11.61;71.80
22181;BME280;11256;50.830;12.834;2023-12-28T14:39:35;97494.28;;;11.52;70.39
22181;BME280;11256;50.830;12.834;2023-12-28T14:44:36;97475.94;;;11.44;69.23
22181;BME280;11256;50.830;12.834;2023-12-28T14:49:36;97476.06;;;11.34;69.37
22181;BME280;11256;50.830;12.834;2023-12-28T14:54:36;97475.38;;;11.23;68.92
22181;BME280;11256;50.830;12.834;2023-12-28T14:59:37;97474.56;;;11.23;68.92
22181;BME280;11256;50.830;12.834;2023-12-28T15:04:38;97471.44;;;11.11;68.86
22181;BME280;11256;50.830;12.834;2023-12-28T15:09:38;97462.63;;;11.00;67.71
22181;BME280;11256;50.830;12.834;2023-12-28T15:14:39;97454.88;;;10.89;68.75
22181;BME280;11256;50.830;12.834;2023-12-28T15:19:39;97454.44;;;10.82;67.92
22181;BME280;11256;50.830;12.834;2023-12-28T15:24:40;97457.72;;;10.79;67.94
22181;BME280;11256;50.830;12.834;2023-12-28T15:29:40;97455.72;;;10.61;68.38
22181;BME280;11256;50.830;12.834;2023-12-28T15:34:41;97466.31;;;10.57;67.68
22181;BME280;11256;50.830;12.834;2023-12-28T15:39:42;97468.84;;;10.49;67.35
22181;BME280;11256;50.830;12.834;2023-12-28T15:44:42;97451.13;;;10.33;67.42
22181;BME280;11256;50.830;12.834;2023-12-28T15:49:43;97457.13;;;10.30;67.62
22181;BME280;11256;50.830;12.834;2023-12-28T15:54:43;97442.59;;;10.16;67.57
22181;BME280;11256;50.830;12.834;2023-12-28T15:59:43;97450.75;;;10.11;67.78
22181;BME280;11256;50.830;12.834;2023-12-28T16:04:44;97449.19;;;10.00;67.61
22181;BME280;11256;50.830;12.834;2023-12-28T16:09:44;97437.66;;;9.89;68.19
22181;BME280;11256;50.830;12.834;2023-12-28T16:14:45;97452.25;;;9.88;67.99
22181;BME280;11256;50.830;12.834;2023-12-28T16:19:46;97445.63;;;9.71;68.40
22181;BME280;11256;50.830;12.834;2023-12-28T16:24:46;97444.00;;;9.70;68.91
22181;BME280;11256;50.830;12.834;2023-12-28T16:29:46;97442.94;;;9.66;68.75
22181;BME280;11256;50.830;12.834;2023-12-28T16:34:47;97440.84;;;9.53;68.77
22181;BME280;11256;50.830;12.834;2023-12-28T16:39:47;97443.59;;;9.48;68.98
22181;BME280;11256;50.830;12.834;2023-12-28T16:44:47;97448.50;;;9.41;69.15
22181;BME280;11256;50.830;12.834;2023-12-28T16:49:48;97450.41;;;9.40;69.32
22181;BME280;11256;50.830;12.834;2023-12-28T16:54:49;97444.22;;;9.30;69.40
22181;BME280;11256;50.830;12.834;2023-12-28T16:59:49;97455.03;;;9.30;69.46
22181;BME280;11256;50.830;12.834;2023-12-28T17:04:50;97451.56;;;9.24;69.76
22181;BME280;11256;50.830;12.834;2023-12-28T17:09:51;97430.22;;;9.18;69.42
22181;BME280;11256;50.830;12.834;2023-12-28T17:14:51;97431.88;;;9.09;69.60
22181;BME280;11256;50.830;12.834;2023-12-28T17:19:54;97428.16;;;9.00;69.75
22181;BME280;11256;50.830;12.834;2023-12-28T17:25:05;97447.34;;;8.98;69.91
22181;BME280;11256;50.830;12.834;2023-12-28T17:30:08;97465.19;;;8.94;69.73
22181;BME280;11256;50.830;12.834;2023-12-28T17:35:09;97455.75;;;8.87;70.22
22181;BME280;11256;50.830;12.834;2023-12-28T17:40:09;97460.09;;;8.83;70.38
22181;BME280;11256;50.830;12.834;2023-12-28T17:45:13;97455.50;;;8.78;70.73
22181;BME280;11256;50.830;12.834;2023-12-28T17:50:15;97456.88;;;8.71;70.66
22181;BME280;11256;50.830;12.834;2023-12-28T17:55:15;97450.41;;;8.67;70.88
22181;BME280;11256;50.830;12.834;2023-12-28T18:00:16;97453.13;;;8.62;70.79
22181;BME280;11256;50.830;12.834;2023-12-28T18:05:16;97456.88;;;8.66;70.94
22181;BME280;11256;50.830;12.834;2023-12-28T18:10:17;97456.94;;;8.56;71.12
22181;BME280;11256;50.830;12.834;2023-12-28T18:15:17;97455.28;;;8.55;71.00
22181;BME280;11256;50.830;12.834;2023-12-28T18:20:17;97453.16;;;8.52;71.37
22181;BME280;11256;50.830;12.834;2023-12-28T18:25:18;97442.88;;;8.49;71.40
22181;BME280;11256;50.830;12.834;2023-12-28T18:30:18;97447.22;;;8.40;71.22
22181;BME280;11256;50.830;12.834;2023-12-28T18:35:18;97442.91;;;8.39;71.83
22181;BME280;11256;50.830;12.834;2023-12-28T18:40:19;97454.25;;;8.41;71.84
22181;BME280;11256;50.830;12.834;2023-12-28T18:45:20;97458.03;;;8.35;71.89
22181;BME280;11256;50.830;12.834;2023-12-28T18:50:21;97456.69;;;8.32;71.97
22181;BME280;11256;50.830;12.834;2023-12-28T18:55:21;97466.13;;;8.40;72.07
22181;BME280;11256;50.830;12.834;2023-12-28T19:00:22;97452.63;;;8.25;72.19
22181;BME280;11256;50.830;12.834;2023-12-28T19:05:22;97459.66;;;8.26;72.35
22181;BME280;11256;50.830;12.834;2023-12-28T19:10:23;97446.97;;;8.26;72.56
22181;BME280;11256;50.830;12.834;2023-12-28T19:15:23;97446.72;;;8.23;72.57
22181;BME280;11256;50.830;12.834;2023-12-28T19:20:23;97434.56;;;8.20;72.58
22181;BME280;11256;50.830;12.834;2023-12-28T19:25:24;97457.50;;;8.28;73.06
22181;BME280;11256;50.830;12.834;2023-12-28T19:30:24;97448.06;;;8.25;73.02
22181;BME280;11256;50.830;12.834;2023-12-28T19:35:24;97438.59;;;8.18;73.11
22181;BME280;11256;50.830;12.834;2023-12-28T19:40:25;97447.78;;;8.22;73.41
22181;BME280;11256;50.830;12.834;2023-12-28T19:45:25;97433.44;;;8.16;73.63
22181;BME280;11256;50.830;12.834;2023-12-28T19:50:26;97412.13;;;8.15;73.48
22181;BME280;11256;50.830;12.834;2023-12-28T19:55:26;97415.91;;;8.19;73.83
22181;BME280;11256;50.830;12.834;2023-12-28T20:00:27;97409.16;;;8.16;74.35
22181;BME280;11256;50.830;12.834;2023-12-28T20:05:28;97388.91;;;8.19;74.40
22181;BME280;11256;50.830;12.834;2023-12-28T20:10:29;97392.44;;;8.24;74.52
22181;BME280;11256;50.830;12.834;2023-12-28T20:15:32;97403.78;;;8.21;74.81
22181;BME280;11256;50.830;12.834;2023-12-28T20:20:32;97401.34;;;8.20;74.96
22181;BME280;11256;50.830;12.834;2023-12-28T20:25:33;97399.19;;;8.22;74.68
22181;BME280;11256;50.830;12.834;2023-12-28T20:30:33;97400.84;;;8.23;74.70
22181;BME280;11256;50.830;12.834;2023-12-28T20:35:33;97395.97;;;8.20;74.42
22181;BME280;11256;50.830;12.834;2023-12-28T20:40:34;97396.47;;;8.17;74.67
22181;BME280;11256;50.830;12.834;2023-12-28T20:45:34;97401.59;;;8.18;74.58
22181;BME280;11256;50.830;12.834;2023-12-28T20:50:35;97404.84;;;8.15;74.34
22181;BME280;11256;50.830;12.834;2023-12-28T20:55:35;97402.41;;;8.14;74.61
22181;BME280;11256;50.830;12.834;2023-12-28T21:00:36;97393.81;;;8.07;74.36
22181;BME280;11256;50.830;12.834;2023-12-28T21:05:36;97395.41;;;8.03;74.25
22181;BME280;11256;50.830;12.834;2023-12-28T21:10:36;97426.72;;;8.14;74.05
22181;BME280;11256;50.830;12.834;2023-12-28T21:15:38;97423.47;;;8.07;74.33
22181;BME280;11256;50.830;12.834;2023-12-28T21:20:39;97400.28;;;8.01;74.01
22181;BME280;11256;50.830;12.834;2023-12-28T21:25:40;97417.81;;;8.03;74.20
22181;BME280;11256;50.830;12.834;2023-12-28T21:30:40;97431.56;;;8.02;74.61
22181;BME280;11256;50.830;12.834;2023-12-28T21:35:41;97427.25;;;7.96;74.01
22181;BME280;11256;50.830;12.834;2023-12-28T21:40:42;97414.84;;;8.00;74.58
22181;BME280;11256;50.830;12.834;2023-12-28T21:45:42;97404.59;;;7.92;74.37
22181;BME280;11256;50.830;12.834;2023-12-28T21:50:45;97409.72;;;7.98;74.40
22181;BME280;11256;50.830;12.834;2023-12-28T21:55:46;97401.91;;;7.92;74.24
22181;BME280;11256;50.830;12.834;2023-12-28T22:00:46;97420.25;;;7.90;74.27
22181;BME280;11256;50.830;12.834;2023-12-28T22:05:46;97421.03;;;7.85;74.12
22181;BME280;11256;50.830;12.834;2023-12-28T22:10:47;97428.59;;;7.83;74.17
22181;BME280;11256;50.830;12.834;2023-12-28T22:15:57;97441.00;;;7.84;73.84
22181;BME280;11256;50.830;12.834;2023-12-28T22:20:58;97446.13;;;7.81;74.05
22181;BME280;11256;50.830;12.834;2023-12-28T22:25:59;97443.97;;;7.78;74.18
22181;BME280;11256;50.830;12.834;2023-12-28T22:30:59;97440.19;;;7.74;73.98
22181;BME280;11256;50.830;12.834;2023-12-28T22:35:59;97435.06;;;7.77;74.41
22181;BME280;11256;50.830;12.834;2023-12-28T22:41:00;97420.78;;;7.77;74.21
22181;BME280;11256;50.830;12.834;2023-12-28T22:46:00;97397.56;;;7.71;74.31
22181;BME280;11256;50.830;12.834;2023-12-28T22:51:00;97393.00;;;7.71;74.43
22181;BME280;11256;50.830;12.834;2023-12-28T22:56:01;97386.78;;;7.71;73.99
22181;BME280;11256;50.830;12.834;2023-12-28T23:01:01;97376.56;;;7.68;74.04
22181;BME280;11256;50.830;12.834;2023-12-28T23:06:02;97371.69;;;7.70;73.97
22181;BME280;11256;50.830;12.834;2023-12-28T23:11:03;97359.81;;;7.61;73.95
22181;BME280;11256;50.830;12.834;2023-12-28T23:16:03;97364.69;;;7.64;73.89
22181;BME280;11256;50.830;12.834;2023-12-28T23:21:04;97347.16;;;7.56;74.06
22181;BME280;11256;50.830;12.834;2023-12-28T23:26:06;97337.97;;;7.47;74.12
22181;BME280;11256;50.830;12.834;2023-12-28T23:31:06;97346.34;;;7.51;74.15
22181;BME280;11256;50.830;12.834;2023-12-28T23:36:07;97351.72;;;7.46;74.24
22181;BME280;11256;50.830;12.834;2023-12-28T23:41:09;97344.44;;;7.41;74.31
22181;BME280;11256;50.830;12.834;2023-12-28T23:46:09;97341.22;;;7.39;74.58
22181;BME280;11256;50.830;12.834;2023-12-28T23:51:09;97344.69;;;7.35;74.25
22181;BME280;11256;50.830;12.834;2023-12-28T23:56:16;97323.16;;;7.25;74.54
